createdAt,value
2022-11-21T00:01:17.488Z,0.30
2022-11-21T00:03:44.738Z,0.38
2022-11-21T00:06:11.828Z,0.50
2022-11-21T00:08:39.039Z,0.13
2022-11-21T00:11:06.084Z,0.10
2022-11-21T00:13:33.641Z,0.30
2022-11-21T00:16:08.517Z,0.35
2022-11-21T00:18:35.625Z,0.20
2022-11-21T00:21:20.387Z,0.20
2022-11-21T00:23:48.043Z,0.20
2022-11-21T00:26:16.490Z,0.30
2022-11-21T00:28:44.481Z,0.20
2022-11-21T00:31:22.430Z,0.13
2022-11-21T00:36:16.678Z,0.30
2022-11-21T00:38:43.805Z,0.20
2022-11-21T00:41:10.870Z,0.20
2022-11-21T00:43:37.937Z,0.28
2022-11-21T00:46:05.094Z,0.30
2022-11-21T00:48:32.389Z,0.10
2022-11-21T00:50:59.739Z,0.30
2022-11-21T00:53:26.850Z,0.40
2022-11-21T00:55:53.896Z,0.17
2022-11-21T00:58:21.000Z,0.30
2022-11-21T01:00:48.122Z,0.30
2022-11-21T01:03:15.343Z,0.20
2022-11-21T01:05:42.393Z,0.30
2022-11-21T01:08:09.553Z,0.30
2022-11-21T01:10:36.910Z,0.25
2022-11-21T01:13:03.924Z,0.30
2022-11-21T01:15:31.148Z,0.43
2022-11-21T01:17:58.292Z,0.10
2022-11-21T01:20:25.405Z,0.22
2022-11-21T01:22:52.548Z,0.10
2022-11-21T01:25:19.644Z,0.25
2022-11-21T01:27:46.798Z,0.25
2022-11-21T01:30:14.694Z,0.10
2022-11-21T01:32:41.822Z,0.20
2022-11-21T01:35:09.149Z,0.20
2022-11-21T01:37:36.215Z,0.38
2022-11-21T01:40:03.602Z,0.30
2022-11-21T01:42:44.626Z,0.13
2022-11-21T01:45:48.583Z,0.28
2022-11-21T01:48:15.737Z,0.15
2022-11-21T01:50:43.038Z,0.17
2022-11-21T01:53:10.190Z,0.10
2022-11-21T01:55:37.655Z,0.20
2022-11-21T01:58:05.046Z,0.13
2022-11-21T02:00:37.332Z,0.25
2022-11-21T02:03:10.470Z,0.20
2022-11-21T02:05:38.795Z,0.30
2022-11-21T02:08:11.589Z,0.25
2022-11-21T02:10:47.741Z,0.30
2022-11-21T02:13:15.184Z,0.15
2022-11-21T02:15:42.276Z,0.10
2022-11-21T02:18:09.851Z,0.40
2022-11-21T02:20:39.341Z,0.40
2022-11-21T02:23:25.491Z,0.30
2022-11-21T02:25:53.276Z,0.20
2022-11-21T02:28:22.064Z,0.30
2022-11-21T02:30:49.232Z,0.40
2022-11-21T02:33:16.670Z,0.40
2022-11-21T02:35:43.950Z,0.40
2022-11-21T02:38:22.468Z,0.22
2022-11-21T02:40:58.449Z,1.10
2022-11-21T02:43:35.822Z,0.30
2022-11-21T02:46:02.897Z,0.20
2022-11-21T02:48:30.062Z,0.20
2022-11-21T02:50:57.124Z,0.20
2022-11-21T02:53:24.230Z,0.45
2022-11-21T02:55:51.410Z,1.45
2022-11-21T02:58:18.540Z,0.20
2022-11-21T03:00:45.690Z,0.37
2022-11-21T03:03:12.761Z,0.40
2022-11-21T03:05:40.967Z,0.40
2022-11-21T03:08:08.490Z,0.65
2022-11-21T03:10:35.570Z,0.35
2022-11-21T03:13:02.620Z,0.40
2022-11-21T03:15:34.290Z,0.30
2022-11-21T03:18:02.531Z,0.40
2022-11-21T03:22:57.518Z,0.75
2022-11-21T03:25:24.643Z,0.20
2022-11-21T03:27:52.860Z,0.20
2022-11-21T03:30:24.513Z,0.22
2022-11-21T03:32:54.667Z,0.38
2022-11-21T03:35:21.719Z,0.30
2022-11-21T03:37:49.149Z,0.50
2022-11-21T03:40:16.508Z,0.20
2022-11-21T03:42:43.678Z,0.60
2022-11-21T03:45:11.019Z,0.38
2022-11-21T03:47:38.237Z,0.32
2022-11-21T03:50:05.609Z,0.57
2022-11-21T03:52:32.702Z,0.60
2022-11-21T03:54:59.925Z,0.43
2022-11-21T03:57:26.959Z,0.77
2022-11-21T03:59:54.093Z,0.65
2022-11-21T04:02:21.319Z,0.22
2022-11-21T04:04:48.385Z,1.13
2022-11-21T04:07:15.486Z,1.17
2022-11-21T04:09:42.705Z,0.28
2022-11-21T04:12:09.794Z,0.33
2022-11-21T04:14:36.875Z,0.75
2022-11-21T04:17:03.998Z,0.30
2022-11-21T04:19:31.094Z,0.43
2022-11-21T04:21:58.331Z,0.50
2022-11-21T04:24:25.537Z,0.50
2022-11-21T04:26:54.582Z,0.45
2022-11-21T04:29:21.918Z,0.40
2022-11-21T04:31:49.097Z,0.30
2022-11-21T04:34:16.196Z,0.85
2022-11-21T04:36:43.293Z,0.35
2022-11-21T04:39:10.472Z,0.40
2022-11-21T04:41:37.598Z,0.68
2022-11-21T04:44:05.022Z,0.52
2022-11-21T04:46:32.296Z,0.25
2022-11-21T04:48:59.473Z,0.60
2022-11-21T04:51:26.560Z,0.30
2022-11-21T04:53:53.601Z,0.43
2022-11-21T04:56:20.780Z,0.30
2022-11-21T04:58:47.866Z,0.32
2022-11-21T05:01:15.133Z,0.40
2022-11-21T05:03:42.225Z,0.63
2022-11-21T05:06:09.351Z,0.25
2022-11-21T05:08:36.569Z,0.50
2022-11-21T05:11:03.620Z,0.50
2022-11-21T05:13:30.820Z,0.30
2022-11-21T05:15:58.288Z,0.32
2022-11-21T05:18:25.746Z,0.55
2022-11-21T05:20:52.802Z,0.30
2022-11-21T05:23:19.858Z,0.50
2022-11-21T05:25:46.999Z,1.02
2022-11-21T05:28:14.159Z,0.40
2022-11-21T05:30:41.205Z,0.57
2022-11-21T05:33:08.360Z,0.30
2022-11-21T05:35:40.171Z,0.10
2022-11-21T05:38:10.017Z,0.20
2022-11-21T05:40:37.142Z,0.20
2022-11-21T05:43:04.329Z,0.50
2022-11-21T05:45:31.372Z,0.20
2022-11-21T05:47:58.486Z,0.20
2022-11-21T05:50:25.601Z,0.22
2022-11-21T05:52:52.913Z,0.30
2022-11-21T05:55:19.927Z,0.77
2022-11-21T05:57:47.001Z,0.30
2022-11-21T06:00:14.700Z,0.25
2022-11-21T06:02:41.800Z,0.30
2022-11-21T06:05:09.259Z,0.82
2022-11-21T06:07:36.562Z,0.30
2022-11-21T06:10:04.221Z,0.30
2022-11-21T06:12:31.571Z,0.20
2022-11-21T06:14:58.699Z,0.28
2022-11-21T06:17:25.913Z,0.30
2022-11-21T06:19:52.941Z,0.30
2022-11-21T06:22:20.079Z,0.22
2022-11-21T06:24:47.125Z,0.28
2022-11-21T06:27:14.252Z,0.20
2022-11-21T06:29:41.345Z,0.60
2022-11-21T06:32:08.399Z,0.20
2022-11-21T06:34:35.445Z,0.40
2022-11-21T06:37:02.622Z,0.25
2022-11-21T06:39:29.677Z,0.30
2022-11-21T06:41:56.896Z,0.32
2022-11-21T06:44:23.948Z,0.35
2022-11-21T06:46:51.799Z,0.30
2022-11-21T06:49:19.250Z,0.30
2022-11-21T06:51:46.341Z,0.60
2022-11-21T06:54:16.765Z,0.50
2022-11-21T06:56:44.345Z,0.22
2022-11-21T06:59:11.509Z,0.20
2022-11-21T07:01:38.773Z,0.43
2022-11-21T07:04:05.848Z,0.50
2022-11-21T07:06:34.966Z,0.50
2022-11-21T07:11:49.243Z,0.30
2022-11-21T07:14:17.673Z,0.30
2022-11-21T07:16:44.737Z,0.30
2022-11-21T07:19:11.929Z,0.13
2022-11-21T07:21:39.138Z,0.70
2022-11-21T07:24:06.293Z,0.10
2022-11-21T07:26:33.431Z,0.22
2022-11-21T07:29:00.582Z,0.30
2022-11-21T07:31:27.659Z,0.10
2022-11-21T07:33:54.803Z,0.60
2022-11-21T07:36:21.906Z,0.30
2022-11-21T07:38:48.959Z,0.30
2022-11-21T07:41:16.126Z,0.20
2022-11-21T07:43:43.261Z,0.20
2022-11-21T07:46:10.544Z,0.40
2022-11-21T07:48:37.650Z,0.15
2022-11-21T07:51:05.814Z,0.20
2022-11-21T07:55:59.933Z,0.22
2022-11-21T07:58:27.002Z,0.17
2022-11-21T08:00:54.183Z,0.20
2022-11-21T08:03:21.388Z,0.20
2022-11-21T08:05:48.627Z,0.30
2022-11-21T08:08:15.795Z,0.20
2022-11-21T08:10:45.499Z,0.23
2022-11-21T08:13:13.694Z,0.20
2022-11-21T08:15:41.002Z,0.30
2022-11-21T08:18:15.933Z,0.35
2022-11-21T08:20:43.025Z,0.30
2022-11-21T08:23:10.869Z,0.32
2022-11-21T08:25:39.509Z,0.30
2022-11-21T08:28:08.012Z,0.47
2022-11-21T08:30:36.255Z,0.25
2022-11-21T08:35:31.103Z,0.25
2022-11-21T08:37:59.386Z,0.15
2022-11-21T08:40:28.590Z,0.38
2022-11-21T08:43:04.630Z,0.38
2022-11-21T08:45:32.464Z,0.28
2022-11-21T08:47:59.910Z,0.22
2022-11-21T08:50:27.100Z,0.32
2022-11-21T08:52:59.950Z,0.30
2022-11-21T08:55:27.229Z,0.30
2022-11-21T08:57:54.233Z,0.30
2022-11-21T09:00:21.420Z,0.30
2022-11-21T09:02:48.542Z,0.30
2022-11-21T09:05:15.590Z,0.30
2022-11-21T09:07:42.695Z,0.40
2022-11-21T09:10:10.321Z,0.28
2022-11-21T09:12:37.493Z,1.10
2022-11-21T09:15:05.510Z,0.57
2022-11-21T09:17:32.629Z,0.35
2022-11-21T09:19:59.807Z,0.32
2022-11-21T09:22:26.893Z,0.38
2022-11-21T09:24:54.058Z,0.50
2022-11-21T09:27:21.123Z,0.30
2022-11-21T09:29:52.441Z,1.52
2022-11-21T09:32:21.658Z,0.68
2022-11-21T09:34:48.757Z,0.50
2022-11-21T09:37:15.938Z,0.40
2022-11-21T09:39:43.037Z,0.40
2022-11-21T09:42:10.060Z,0.68
2022-11-21T09:44:47.331Z,1.40
2022-11-21T09:47:22.518Z,0.70
2022-11-21T09:49:57.108Z,0.45
2022-11-21T09:52:31.875Z,0.25
2022-11-21T09:55:04.851Z,0.47
2022-11-21T09:57:35.008Z,0.30
2022-11-21T10:00:14.093Z,0.30
2022-11-21T10:02:41.687Z,0.75
2022-11-21T10:05:14.051Z,0.55
2022-11-21T10:07:42.907Z,0.40
2022-11-21T10:10:33.563Z,0.40
2022-11-21T10:13:14.682Z,0.40
2022-11-21T10:15:58.222Z,0.32
2022-11-21T10:19:06.990Z,0.43
2022-11-21T10:22:04.618Z,0.70
2022-11-21T10:24:43.839Z,0.30
2022-11-21T10:27:32.332Z,0.55
2022-11-21T10:30:04.517Z,0.68
2022-11-21T10:32:47.619Z,0.60
2022-11-21T10:35:19.177Z,0.60
2022-11-21T10:38:00.134Z,0.50
2022-11-21T10:40:40.310Z,0.75
2022-11-21T10:43:15.966Z,0.88
2022-11-21T10:45:43.134Z,0.30
2022-11-21T10:48:10.290Z,0.75
2022-11-21T10:50:57.043Z,0.28
2022-11-21T10:53:26.098Z,0.38
2022-11-21T10:56:03.524Z,0.57
2022-11-21T10:58:39.854Z,0.60
2022-11-21T11:01:07.182Z,0.43
2022-11-21T11:03:34.254Z,0.70
2022-11-21T11:06:01.323Z,0.57
2022-11-21T11:08:28.497Z,0.40
2022-11-21T11:11:05.619Z,1.17
2022-11-21T11:13:49.883Z,1.00
2022-11-21T11:16:20.494Z,0.80
2022-11-21T11:18:59.317Z,0.50
2022-11-21T11:21:50.410Z,0.35
2022-11-21T11:24:17.503Z,0.88
2022-11-21T11:26:48.598Z,0.80
2022-11-21T11:29:31.323Z,0.93
2022-11-21T11:32:21.686Z,0.82
2022-11-21T11:34:59.159Z,0.50
2022-11-21T11:37:41.120Z,0.57
2022-11-21T11:40:29.655Z,1.00
2022-11-21T11:43:41.905Z,0.73
2022-11-21T11:46:21.483Z,0.68
2022-11-21T11:49:19.352Z,1.25
2022-11-21T11:51:44.030Z,0.52
2022-11-21T11:54:24.483Z,0.68
2022-11-21T11:56:52.108Z,0.68
2022-11-21T11:59:33.957Z,0.83
2022-11-21T12:02:11.563Z,0.80
2022-11-21T12:04:50.525Z,0.70
2022-11-21T12:10:20.799Z,0.52
2022-11-21T12:13:06.541Z,1.58
2022-11-21T12:15:44.005Z,0.65
2022-11-21T12:18:19.936Z,0.40
2022-11-21T12:21:11.012Z,0.80
2022-11-21T12:23:47.280Z,1.05
2022-11-21T12:26:20.225Z,0.70
2022-11-21T12:29:11.990Z,0.98
2022-11-21T12:32:04.759Z,0.68
2022-11-21T12:34:31.799Z,0.75
2022-11-21T12:37:23.020Z,0.77
2022-11-21T12:40:18.593Z,1.00
2022-11-21T12:43:16.065Z,0.50
2022-11-21T12:45:54.504Z,0.68
2022-11-21T12:48:49.393Z,0.50
2022-11-21T12:51:31.317Z,0.52
2022-11-21T12:54:17.295Z,0.70
2022-11-21T12:57:16.098Z,0.50
2022-11-21T12:59:58.142Z,0.60
2022-11-21T13:02:55.442Z,0.80
2022-11-21T13:05:29.166Z,0.60
2022-11-21T13:08:13.075Z,0.85
2022-11-21T13:10:50.718Z,0.80
2022-11-21T13:13:32.515Z,0.75
2022-11-21T13:16:08.550Z,0.32
2022-11-21T13:18:46.020Z,0.60
2022-11-21T13:21:42.367Z,0.88
2022-11-21T13:24:09.890Z,0.40
2022-11-21T13:26:36.897Z,0.40
2022-11-21T13:29:12.815Z,0.47
2022-11-21T13:31:40.629Z,0.55
2022-11-21T13:34:35.173Z,0.40
2022-11-21T13:37:02.825Z,0.30
2022-11-21T13:39:34.938Z,1.05
2022-11-21T13:42:07.534Z,0.40
2022-11-21T13:44:39.487Z,0.30
2022-11-21T13:47:09.511Z,0.32
2022-11-21T13:49:36.550Z,0.77
2022-11-21T13:52:20.782Z,0.68
2022-11-21T13:55:35.326Z,1.15
2022-11-21T13:58:42.987Z,0.98
2022-11-21T14:01:21.927Z,0.60
2022-11-21T14:04:08.488Z,0.30
2022-11-21T14:06:41.973Z,1.08
2022-11-21T14:09:20.059Z,0.20
2022-11-21T14:14:25.082Z,0.75
2022-11-21T14:19:27.620Z,0.47
2022-11-21T14:21:55.014Z,0.68
2022-11-21T14:24:22.432Z,1.30
2022-11-21T14:26:52.363Z,0.50
2022-11-21T14:29:38.205Z,0.70
2022-11-21T14:32:05.329Z,1.25
2022-11-21T14:34:33.222Z,1.17
2022-11-21T14:37:05.151Z,0.75
2022-11-21T14:39:39.711Z,0.50
2022-11-21T14:42:15.052Z,0.50
2022-11-21T14:44:42.786Z,0.60
2022-11-21T14:47:25.215Z,0.22
2022-11-21T14:49:55.443Z,0.50
2022-11-21T14:52:30.947Z,0.32
2022-11-21T14:55:29.015Z,0.40
2022-11-21T14:57:48.005Z,0.70
2022-11-21T15:03:20.214Z,0.30
2022-11-21T15:06:06.950Z,0.47
2022-11-21T15:11:32.560Z,1.33
2022-11-21T15:14:19.778Z,0.40
2022-11-21T15:16:50.002Z,0.73
2022-11-21T15:19:21.056Z,0.68
2022-11-21T15:21:49.933Z,0.75
2022-11-21T15:24:39.386Z,0.80
2022-11-21T15:27:31.236Z,0.77
2022-11-21T15:30:23.791Z,0.80
2022-11-21T15:33:00.917Z,1.25
2022-11-21T15:35:49.055Z,1.57
2022-11-21T15:38:46.945Z,1.30
2022-11-21T15:41:14.121Z,1.00
2022-11-21T15:44:13.422Z,1.25
2022-11-21T15:46:40.543Z,0.68
2022-11-21T15:49:31.428Z,0.70
2022-11-21T15:52:12.557Z,1.70
2022-11-21T15:54:39.685Z,1.48
2022-11-21T15:57:08.251Z,0.77
2022-11-21T15:59:35.391Z,1.10
2022-11-21T16:02:02.698Z,0.90
2022-11-21T16:04:29.779Z,1.07
2022-11-21T16:06:56.849Z,1.10
2022-11-21T16:09:23.912Z,1.02
2022-11-21T16:11:50.974Z,1.48
2022-11-21T16:14:18.136Z,1.00
2022-11-21T16:16:47.442Z,1.75
2022-11-21T16:19:15.689Z,0.80
2022-11-21T16:21:43.168Z,1.40
2022-11-21T16:24:10.351Z,1.15
2022-11-21T16:26:37.399Z,1.05
2022-11-21T16:29:04.472Z,1.13
2022-11-21T16:31:31.653Z,1.23
2022-11-21T16:33:59.014Z,1.00
2022-11-21T16:36:30.841Z,1.15
2022-11-21T16:39:05.142Z,1.38
2022-11-21T16:41:35.167Z,1.55
2022-11-21T16:44:02.386Z,1.27
2022-11-21T16:46:29.501Z,1.67
2022-11-21T16:49:03.018Z,1.63
2022-11-21T16:51:30.705Z,2.20
2022-11-21T16:54:01.581Z,2.30
2022-11-21T16:56:31.509Z,2.42
2022-11-21T16:58:58.589Z,2.50
2022-11-21T17:01:26.599Z,2.97
2022-11-21T17:06:26.290Z,3.25
2022-11-21T17:08:53.425Z,2.65
2022-11-21T17:11:26.012Z,3.20
2022-11-21T17:13:53.148Z,3.28
2022-11-21T17:16:21.560Z,4.38
2022-11-21T17:18:53.023Z,3.67
2022-11-21T17:21:20.178Z,3.67
2022-11-21T17:23:48.199Z,3.30
2022-11-21T17:28:46.047Z,2.95
2022-11-21T17:31:15.581Z,2.70
2022-11-21T17:33:43.835Z,2.17
2022-11-21T17:36:12.830Z,1.90
2022-11-21T17:38:40.278Z,2.70
2022-11-21T17:41:10.738Z,2.65
2022-11-21T17:43:37.875Z,2.97
2022-11-21T17:46:09.831Z,2.80
2022-11-21T17:48:38.241Z,2.50
2022-11-21T17:51:17.263Z,2.58
2022-11-21T17:53:47.331Z,3.08
2022-11-21T17:56:17.171Z,2.83
2022-11-21T17:58:44.537Z,4.57
2022-11-21T18:01:12.503Z,3.13
2022-11-21T18:06:09.326Z,3.72
2022-11-21T18:08:38.568Z,4.32
2022-11-21T18:11:10.736Z,3.25
2022-11-21T18:13:38.586Z,2.80
2022-11-21T18:16:11.876Z,3.03
2022-11-21T18:18:39.296Z,2.83
2022-11-21T18:21:11.981Z,2.57
2022-11-21T18:23:39.263Z,2.60
2022-11-21T18:26:31.907Z,3.50
2022-11-21T18:29:28.718Z,3.40
2022-11-21T18:31:47.914Z,4.07
2022-11-21T18:34:15.222Z,3.03
2022-11-21T18:36:42.361Z,3.20
2022-11-21T18:39:14.634Z,3.10
2022-11-21T18:41:42.776Z,3.50
2022-11-21T18:44:09.831Z,3.15
2022-11-21T18:46:37.767Z,3.47
2022-11-21T18:49:06.777Z,3.67
2022-11-21T18:51:35.378Z,2.90
2022-11-21T18:54:06.814Z,4.68
2022-11-21T18:56:34.943Z,5.07
2022-11-21T19:01:29.866Z,3.60
2022-11-21T19:03:57.250Z,3.08
2022-11-21T19:06:26.026Z,2.70
2022-11-21T19:08:54.975Z,3.55
2022-11-21T19:11:24.482Z,3.28
2022-11-21T19:13:53.415Z,3.20
2022-11-21T19:16:22.749Z,3.45
2022-11-21T19:19:11.765Z,3.10
2022-11-21T19:21:39.090Z,2.90
2022-11-21T19:24:06.994Z,3.65
2022-11-21T19:26:34.105Z,2.45
2022-11-21T19:29:01.650Z,2.23
2022-11-21T19:31:28.882Z,3.55
2022-11-21T19:33:56.003Z,2.80
2022-11-21T19:36:23.925Z,2.17
2022-11-21T19:38:51.802Z,2.45
2022-11-21T19:43:49.629Z,2.50
2022-11-21T19:46:22.354Z,2.45
2022-11-21T19:48:52.193Z,3.25
2022-11-21T19:51:20.812Z,2.60
2022-11-21T19:53:48.269Z,3.20
2022-11-21T19:56:25.234Z,3.10
2022-11-21T19:58:52.997Z,2.90
2022-11-21T20:01:22.391Z,3.00
2022-11-21T20:03:51.782Z,2.88
2022-11-21T20:06:24.688Z,2.83
2022-11-21T20:08:56.541Z,2.35
2022-11-21T20:11:25.959Z,3.33
2022-11-21T20:13:53.390Z,2.17
2022-11-21T20:16:24.026Z,1.55
2022-11-21T20:18:52.534Z,1.73
2022-11-21T20:21:19.957Z,1.60
2022-11-21T20:23:47.361Z,1.30
2022-11-21T20:26:16.477Z,1.35
2022-11-21T20:28:44.479Z,1.23
2022-11-21T20:31:14.413Z,2.17
2022-11-21T20:33:43.780Z,1.20
2022-11-21T20:36:13.426Z,1.30
2022-11-21T20:38:40.502Z,1.27
2022-11-21T20:41:07.567Z,1.40
2022-11-21T20:44:14.259Z,1.40
2022-11-21T20:46:22.126Z,2.47
2022-11-21T20:48:49.625Z,1.42
2022-11-21T20:54:04.455Z,1.95
2022-11-21T20:56:35.733Z,2.20
2022-11-21T20:59:04.875Z,1.60
2022-11-21T21:01:32.031Z,1.70
2022-11-21T21:03:59.191Z,1.90
2022-11-21T21:06:26.277Z,2.17
2022-11-21T21:08:53.434Z,1.25
2022-11-21T21:11:50.369Z,1.97
2022-11-21T21:14:10.199Z,1.30
2022-11-21T21:16:40.173Z,1.20
2022-11-21T21:19:07.221Z,1.65
2022-11-21T21:21:34.376Z,1.60
2022-11-21T21:24:06.438Z,1.90
2022-11-21T21:26:41.734Z,1.63
2022-11-21T21:29:11.900Z,1.45
2022-11-21T21:31:41.784Z,1.10
2022-11-21T21:34:12.653Z,1.17
2022-11-21T21:36:39.798Z,3.03
2022-11-21T21:39:06.952Z,1.95
2022-11-21T21:41:34.055Z,1.60
2022-11-21T21:44:01.233Z,1.30
2022-11-21T21:46:28.313Z,1.27
2022-11-21T21:48:57.493Z,1.40
2022-11-21T21:51:29.366Z,0.90
2022-11-21T21:53:57.812Z,1.40
2022-11-21T21:56:26.613Z,1.27
2022-11-21T21:58:54.157Z,1.27
2022-11-21T22:01:24.160Z,1.67
2022-11-21T22:03:56.234Z,1.02
2022-11-21T22:06:24.254Z,1.05
2022-11-21T22:08:51.694Z,1.00
2022-11-21T22:11:24.649Z,1.20
2022-11-21T22:13:57.235Z,0.98
2022-11-21T22:16:25.211Z,1.50
2022-11-21T22:18:53.402Z,0.98
2022-11-21T22:21:26.671Z,1.42
2022-11-21T22:24:24.746Z,1.20
2022-11-21T22:26:42.395Z,1.35
2022-11-21T22:29:09.450Z,1.15
2022-11-21T22:31:36.572Z,1.00
2022-11-21T22:34:03.628Z,1.20
2022-11-21T22:36:30.693Z,1.00
2022-11-21T22:38:57.757Z,1.23
2022-11-21T22:41:27.163Z,1.35
2022-11-21T22:43:58.766Z,1.30
2022-11-21T22:46:27.851Z,1.40
2022-11-21T22:48:55.407Z,1.10
2022-11-21T22:51:24.904Z,1.10
2022-11-21T22:53:52.976Z,1.50
2022-11-21T23:01:19.868Z,1.03
2022-11-21T23:03:47.200Z,1.48
2022-11-21T23:06:19.272Z,1.57
2022-11-21T23:08:47.408Z,0.80
2022-11-21T23:11:20.300Z,0.90
2022-11-21T23:13:48.147Z,1.00
2022-11-21T23:16:16.190Z,1.10
2022-11-21T23:18:43.646Z,0.95
2022-11-21T23:21:11.913Z,1.00
2022-11-21T23:23:39.274Z,1.17
2022-11-21T23:26:06.910Z,1.17
2022-11-21T23:28:34.156Z,1.10
2022-11-21T23:31:01.881Z,1.33
2022-11-21T23:33:29.165Z,1.70
2022-11-21T23:35:56.321Z,1.00
2022-11-21T23:38:23.406Z,1.10
2022-11-21T23:40:50.516Z,0.90
2022-11-21T23:43:18.592Z,0.90
2022-11-21T23:48:16.774Z,1.08
2022-11-21T23:50:43.936Z,1.25
2022-11-21T23:53:11.074Z,1.00
2022-11-21T23:55:38.160Z,1.50
2022-11-21T23:58:05.384Z,0.87
